createdAt,value
2019-02-08T00:01:50.277Z,100.00
2019-02-08T00:04:31.413Z,100.00
2019-02-08T00:07:12.216Z,100.00
2019-02-08T00:09:53.507Z,100.00
2019-02-08T00:12:34.648Z,100.00
2019-02-08T00:15:15.455Z,100.00
2019-02-08T00:17:57.099Z,100.00
2019-02-08T00:20:38.663Z,100.00
2019-02-08T00:23:26.706Z,100.00
2019-02-08T00:26:02.005Z,100.00
2019-02-08T00:28:43.466Z,100.00
2019-02-08T00:31:24.202Z,100.00
2019-02-08T00:34:05.465Z,100.00
2019-02-08T00:36:46.360Z,100.00
2019-02-08T00:39:27.817Z,100.00
2019-02-08T00:42:08.460Z,100.00
2019-02-08T00:44:49.929Z,100.00
2019-02-08T00:47:31.191Z,100.00
2019-02-08T00:50:12.765Z,100.00
2019-02-08T00:52:54.537Z,100.00
2019-02-08T00:55:35.713Z,100.00
2019-02-08T00:58:16.638Z,100.00
2019-02-08T01:00:58.060Z,100.00
2019-02-08T01:03:39.652Z,100.00
2019-02-08T01:06:21.038Z,100.00
2019-02-08T01:09:02.049Z,100.00
2019-02-08T01:11:43.438Z,100.00
2019-02-08T01:14:24.758Z,100.00
2019-02-08T01:17:05.737Z,100.00
2019-02-08T01:19:47.287Z,100.00
2019-02-08T01:22:28.414Z,100.00
2019-02-08T01:25:09.151Z,100.00
2019-02-08T01:27:50.183Z,100.00
2019-02-08T01:30:31.341Z,100.00
2019-02-08T01:33:13.145Z,100.00
2019-02-08T01:35:54.340Z,100.00
2019-02-08T01:38:35.927Z,100.00
2019-02-08T01:41:17.326Z,100.00
2019-02-08T01:43:58.508Z,100.00
2019-02-08T01:46:41.291Z,100.00
2019-02-08T01:49:22.329Z,100.00
2019-02-08T01:52:03.381Z,100.00
2019-02-08T01:54:44.836Z,100.00
2019-02-08T01:57:25.275Z,100.00
2019-02-08T02:00:06.480Z,100.00
2019-02-08T02:02:47.452Z,100.00
2019-02-08T02:05:28.398Z,100.00
2019-02-08T02:08:10.154Z,100.00
2019-02-08T02:10:50.718Z,100.00
2019-02-08T02:13:31.588Z,100.00
2019-02-08T02:16:12.631Z,100.00
2019-02-08T02:18:53.574Z,100.00
2019-02-08T02:21:34.494Z,100.00
2019-02-08T02:24:15.449Z,100.00
2019-02-08T02:26:56.713Z,100.00
2019-02-08T02:29:38.503Z,100.00
2019-02-08T02:32:19.567Z,99.33
2019-02-08T02:35:00.584Z,98.26
2019-02-08T02:37:41.967Z,95.83
2019-02-08T02:40:23.115Z,94.58
2019-02-08T02:43:04.753Z,92.81
2019-02-08T02:45:45.846Z,90.50
2019-02-08T02:48:27.574Z,90.65
2019-02-08T02:51:09.202Z,89.99
2019-02-08T02:53:50.137Z,88.07
2019-02-08T02:56:31.225Z,85.96
2019-02-08T02:59:12.742Z,83.70
2019-02-08T03:01:53.693Z,86.07
2019-02-08T03:04:34.682Z,84.70
2019-02-08T03:07:15.966Z,83.66
2019-02-08T03:09:57.433Z,83.29
2019-02-08T03:12:38.495Z,84.17
2019-02-08T03:15:20.016Z,84.94
2019-02-08T03:18:00.976Z,84.55
2019-02-08T03:20:42.014Z,84.24
2019-02-08T03:23:22.814Z,84.79
2019-02-08T03:26:09.259Z,84.67
2019-02-08T03:28:50.051Z,86.00
2019-02-08T03:31:30.800Z,84.27
2019-02-08T03:34:11.439Z,82.98
2019-02-08T03:39:43.515Z,79.94
2019-02-08T03:42:24.770Z,79.76
2019-02-08T03:45:05.551Z,79.16
2019-02-08T03:47:46.527Z,73.64
2019-02-08T03:50:27.067Z,74.65
2019-02-08T03:53:07.875Z,69.78
2019-02-08T03:55:48.612Z,72.09
2019-02-08T03:58:29.513Z,72.97
2019-02-08T04:01:10.780Z,67.70
2019-02-08T04:03:52.355Z,67.94
2019-02-08T04:06:32.923Z,66.41
2019-02-08T04:09:13.483Z,66.49
2019-02-08T04:11:54.536Z,65.14
2019-02-08T04:14:35.480Z,65.01
2019-02-08T04:17:16.404Z,65.64
2019-02-08T04:19:56.666Z,63.82
2019-02-08T04:22:37.879Z,63.55
2019-02-08T04:25:17.845Z,64.98
2019-02-08T04:27:58.642Z,61.20
2019-02-08T04:30:39.433Z,62.73
2019-02-08T04:33:19.715Z,57.86
2019-02-08T04:36:00.549Z,55.25
2019-02-08T04:38:40.537Z,54.70
2019-02-08T04:41:20.999Z,54.56
2019-02-08T04:44:01.743Z,56.78
2019-02-08T04:46:42.405Z,56.13
2019-02-08T04:49:23.061Z,56.82
2019-02-08T04:52:03.927Z,44.95
2019-02-08T04:54:44.589Z,47.48
2019-02-08T04:57:25.249Z,45.53
2019-02-08T05:00:05.532Z,46.69
2019-02-08T05:02:46.293Z,46.91
2019-02-08T05:05:26.562Z,44.75
2019-02-08T05:08:07.194Z,45.46
2019-02-08T05:10:48.382Z,44.51
2019-02-08T05:13:29.258Z,48.02
2019-02-08T05:16:09.713Z,48.26
2019-02-08T05:18:49.520Z,48.43
2019-02-08T05:21:29.611Z,48.10
2019-02-08T05:24:10.025Z,46.98
2019-02-08T05:26:50.013Z,48.93
2019-02-08T05:29:30.081Z,50.08
2019-02-08T05:32:10.655Z,50.28
2019-02-08T05:34:51.039Z,47.00
2019-02-08T05:37:31.362Z,47.83
2019-02-08T05:40:11.429Z,46.98
2019-02-08T05:42:51.891Z,47.19
2019-02-08T05:45:32.649Z,43.95
2019-02-08T05:48:13.033Z,46.61
2019-02-08T05:50:53.009Z,43.94
2019-02-08T05:53:33.678Z,43.48
2019-02-08T05:56:13.890Z,43.24
2019-02-08T05:58:54.159Z,44.81
2019-02-08T06:01:34.172Z,44.46
2019-02-08T06:04:14.871Z,42.74
2019-02-08T06:06:58.776Z,43.97
2019-02-08T06:09:39.784Z,43.18
2019-02-08T06:12:20.685Z,41.59
2019-02-08T06:15:02.187Z,41.96
2019-02-08T06:17:43.357Z,40.62
2019-02-08T06:20:24.563Z,42.52
2019-02-08T06:23:04.845Z,43.04
2019-02-08T06:25:46.796Z,42.76
2019-02-08T06:28:27.919Z,43.14
2019-02-08T06:31:08.927Z,43.01
2019-02-08T06:33:49.373Z,43.79
2019-02-08T06:36:29.832Z,41.84
2019-02-08T06:39:10.839Z,43.28
2019-02-08T06:41:51.629Z,44.71
2019-02-08T06:44:32.336Z,42.71
2019-02-08T06:47:13.224Z,41.27
2019-02-08T06:49:53.382Z,41.99
2019-02-08T06:52:33.921Z,43.95
2019-02-08T06:55:17.002Z,42.30
2019-02-08T06:58:07.772Z,43.59
2019-02-08T07:00:49.739Z,45.19
2019-02-08T07:03:30.936Z,43.66
2019-02-08T07:06:11.591Z,42.78
2019-02-08T07:08:52.125Z,42.18
2019-02-08T07:11:32.533Z,43.58
2019-02-08T07:14:13.209Z,44.06
2019-02-08T07:16:53.531Z,43.45
2019-02-08T07:19:33.553Z,43.87
2019-02-08T07:22:14.763Z,45.58
2019-02-08T07:24:54.744Z,42.92
2019-02-08T07:27:35.605Z,44.22
2019-02-08T07:30:16.118Z,43.60
2019-02-08T07:32:57.739Z,42.63
2019-02-08T07:35:39.196Z,43.50
2019-02-08T07:38:20.522Z,43.25
2019-02-08T07:41:04.775Z,43.39
2019-02-08T07:43:48.026Z,43.99
2019-02-08T07:46:28.900Z,44.25
2019-02-08T07:49:09.017Z,44.08
2019-02-08T07:51:49.992Z,44.80
2019-02-08T07:54:30.757Z,44.11
2019-02-08T07:57:12.691Z,45.54
2019-02-08T07:59:52.832Z,43.62
2019-02-08T08:02:34.422Z,45.08
2019-02-08T08:05:15.883Z,46.23
2019-02-08T08:10:49.189Z,46.34
2019-02-08T08:13:30.669Z,46.69
2019-02-08T08:18:54.990Z,46.57
2019-02-08T08:24:21.167Z,46.71
2019-02-08T08:27:06.257Z,47.10
2019-02-08T08:29:52.503Z,48.01
2019-02-08T08:32:35.772Z,47.81
2019-02-08T08:35:19.790Z,47.69
2019-02-08T08:40:53.113Z,48.61
2019-02-08T08:43:37.933Z,48.27
2019-02-08T08:46:18.607Z,48.23
2019-02-08T08:49:00.542Z,48.05
2019-02-08T08:51:43.983Z,47.16
2019-02-08T08:54:24.413Z,45.14
2019-02-08T08:57:05.266Z,45.90
2019-02-08T08:59:47.988Z,45.41
2019-02-08T09:02:31.177Z,44.55
2019-02-08T09:05:12.174Z,44.79
2019-02-08T09:07:52.559Z,46.78
2019-02-08T09:10:33.608Z,44.28
2019-02-08T09:13:15.039Z,44.24
2019-02-08T09:15:56.395Z,44.72
2019-02-08T09:18:38.957Z,41.37
2019-02-08T09:24:08.169Z,43.62
2019-02-08T09:26:50.043Z,43.00
2019-02-08T09:29:34.491Z,42.18
2019-02-08T09:32:16.846Z,42.21
2019-02-08T09:34:58.232Z,43.72
2019-02-08T09:37:43.903Z,44.30
2019-02-08T09:40:25.940Z,44.14
2019-02-08T09:43:06.883Z,42.88
2019-02-08T09:45:48.976Z,41.42
2019-02-08T09:48:35.548Z,43.60
2019-02-08T09:51:17.526Z,43.55
2019-02-08T09:53:58.917Z,45.25
2019-02-08T09:56:40.639Z,44.90
2019-02-08T09:59:22.069Z,43.82
2019-02-08T10:02:02.547Z,44.79
2019-02-08T10:09:37.766Z,42.95
2019-02-08T10:12:18.326Z,44.19
2019-02-08T10:14:58.389Z,45.28
2019-02-08T10:17:39.048Z,45.70
2019-02-08T10:20:19.513Z,46.25
2019-02-08T10:22:59.967Z,48.56
2019-02-08T10:25:41.167Z,44.81
2019-02-08T10:28:21.931Z,47.59
2019-02-08T10:31:03.179Z,51.39
2019-02-08T10:33:44.353Z,51.34
2019-02-08T10:36:25.042Z,53.90
2019-02-08T10:39:05.677Z,55.34
2019-02-08T10:41:47.187Z,56.64
2019-02-08T10:44:27.648Z,57.06
2019-02-08T10:47:17.923Z,57.00
2019-02-08T10:49:57.640Z,57.39
2019-02-08T10:52:38.118Z,57.62
2019-02-08T10:55:18.343Z,57.34
2019-02-08T10:57:59.665Z,58.38
2019-02-08T11:00:40.101Z,59.17
2019-02-08T11:03:21.263Z,59.31
2019-02-08T11:06:03.195Z,59.46
2019-02-08T11:08:43.753Z,59.17
2019-02-08T11:11:24.622Z,60.38
2019-02-08T11:14:05.746Z,59.90
2019-02-08T11:16:46.712Z,61.63
2019-02-08T11:19:28.643Z,62.10
2019-02-08T11:22:09.682Z,62.73
2019-02-08T11:27:27.122Z,70.32
2019-02-08T11:30:07.908Z,69.12
2019-02-08T11:32:48.861Z,68.59
2019-02-08T11:35:30.295Z,68.44
2019-02-08T11:38:11.256Z,68.09
2019-02-08T11:40:51.828Z,69.77
2019-02-08T11:43:32.560Z,71.00
2019-02-08T11:46:13.630Z,72.58
2019-02-08T11:48:54.391Z,72.74
2019-02-08T11:51:35.802Z,73.94
2019-02-08T11:54:17.378Z,75.27
2019-02-08T11:56:58.342Z,77.12
2019-02-08T11:59:39.823Z,76.28
2019-02-08T12:02:20.599Z,80.24
2019-02-08T12:05:01.288Z,81.26
2019-02-08T12:07:42.138Z,81.99
2019-02-08T12:10:22.731Z,81.88
2019-02-08T12:13:03.375Z,81.99
2019-02-08T12:15:43.987Z,81.03
2019-02-08T12:18:25.033Z,84.07
2019-02-08T12:21:05.695Z,83.01
2019-02-08T12:23:46.573Z,84.43
2019-02-08T12:26:27.512Z,82.47
2019-02-08T12:29:08.467Z,84.72
2019-02-08T12:31:48.974Z,86.14
2019-02-08T12:34:29.245Z,84.27
2019-02-08T12:37:09.918Z,86.45
2019-02-08T12:39:50.801Z,86.81
2019-02-08T12:42:31.656Z,86.09
2019-02-08T12:45:12.636Z,85.48
2019-02-08T12:47:53.595Z,86.89
2019-02-08T12:50:34.252Z,86.94
2019-02-08T12:53:15.531Z,87.98
2019-02-08T12:55:56.784Z,88.22
2019-02-08T12:58:37.687Z,88.97
2019-02-08T13:01:18.712Z,90.25
2019-02-08T13:03:58.931Z,92.47
2019-02-08T13:06:43.127Z,91.11
2019-02-08T13:09:24.996Z,91.05
2019-02-08T13:12:06.059Z,91.32
2019-02-08T13:14:47.032Z,92.22
2019-02-08T13:17:27.789Z,92.32
2019-02-08T13:20:09.269Z,92.45
2019-02-08T13:22:49.905Z,92.98
2019-02-08T13:25:31.673Z,93.86
2019-02-08T13:28:15.158Z,93.53
2019-02-08T13:30:57.476Z,93.81
2019-02-08T13:33:40.289Z,94.89
2019-02-08T13:36:24.524Z,93.51
2019-02-08T13:39:06.182Z,94.74
2019-02-08T13:41:47.183Z,94.47
2019-02-08T13:44:28.922Z,96.01
2019-02-08T13:47:14.426Z,96.28
2019-02-08T13:49:56.458Z,95.36
2019-02-08T13:52:37.398Z,96.41
2019-02-08T13:55:17.672Z,96.20
2019-02-08T13:57:58.280Z,96.48
2019-02-08T14:00:39.443Z,96.38
2019-02-08T14:03:19.731Z,96.38
2019-02-08T14:06:01.300Z,97.70
2019-02-08T14:08:41.856Z,97.85
2019-02-08T14:11:22.548Z,98.33
2019-02-08T14:14:03.306Z,98.49
2019-02-08T14:16:44.257Z,98.64
2019-02-08T14:19:24.784Z,99.10
2019-02-08T14:22:09.937Z,98.94
2019-02-08T14:24:50.925Z,98.64
2019-02-08T14:27:31.831Z,98.28
2019-02-08T14:30:17.764Z,98.94
2019-02-08T14:33:01.385Z,98.16
2019-02-08T14:35:42.449Z,98.17
2019-02-08T14:38:23.412Z,98.04
2019-02-08T14:41:04.330Z,98.25
2019-02-08T14:43:44.732Z,97.96
2019-02-08T14:46:25.638Z,98.03
2019-02-08T14:49:06.541Z,97.92
2019-02-08T14:51:47.827Z,98.08
2019-02-08T14:54:28.857Z,98.00
2019-02-08T14:57:16.297Z,97.92
2019-02-08T14:59:50.860Z,98.09
2019-02-08T15:02:32.082Z,98.11
2019-02-08T15:05:12.231Z,98.24
2019-02-08T15:07:52.498Z,98.75
2019-02-08T15:10:32.528Z,97.88
2019-02-08T15:13:13.116Z,97.67
2019-02-08T15:15:52.873Z,97.92
2019-02-08T15:18:32.860Z,98.77
2019-02-08T15:21:15.633Z,97.89
2019-02-08T15:23:56.548Z,98.58
2019-02-08T15:26:36.510Z,98.23
2019-02-08T15:29:17.312Z,98.62
2019-02-08T15:31:57.317Z,98.59
2019-02-08T15:34:38.142Z,98.21
2019-02-08T15:37:18.921Z,98.53
2019-02-08T15:39:59.061Z,98.36
2019-02-08T15:42:39.725Z,98.08
2019-02-08T15:45:19.771Z,97.97
2019-02-08T15:48:00.335Z,97.92
2019-02-08T15:50:40.942Z,98.10
2019-02-08T15:53:21.084Z,98.20
2019-02-08T15:56:01.951Z,95.62
2019-02-08T15:58:42.299Z,95.18
2019-02-08T16:01:23.168Z,94.76
2019-02-08T16:04:03.852Z,92.55
2019-02-08T16:06:43.942Z,91.39
2019-02-08T16:09:24.805Z,89.73
2019-02-08T16:12:05.423Z,88.27
2019-02-08T16:14:46.106Z,87.30
2019-02-08T16:17:28.494Z,87.91
2019-02-08T16:20:09.764Z,86.99
2019-02-08T16:22:50.234Z,86.15
2019-02-08T16:25:30.498Z,86.41
2019-02-08T16:28:11.110Z,86.06
2019-02-08T16:30:54.682Z,85.26
2019-02-08T16:33:35.647Z,85.95
2019-02-08T16:36:17.004Z,84.59
2019-02-08T16:38:58.693Z,85.01
2019-02-08T16:41:40.146Z,85.89
2019-02-08T16:44:21.117Z,85.15
2019-02-08T16:47:02.485Z,85.79
2019-02-08T16:49:42.910Z,86.44
2019-02-08T16:52:24.005Z,86.84
2019-02-08T16:55:05.010Z,87.02
2019-02-08T17:00:35.518Z,87.63
2019-02-08T17:03:17.261Z,87.80
2019-02-08T17:05:58.609Z,87.93
2019-02-08T17:08:39.062Z,88.34
2019-02-08T17:11:19.008Z,88.23
2019-02-08T17:13:59.100Z,88.63
2019-02-08T17:16:39.910Z,88.74
2019-02-08T17:19:20.712Z,89.67
2019-02-08T17:22:01.233Z,88.37
2019-02-08T17:24:41.446Z,88.64
2019-02-08T17:27:21.717Z,87.32
2019-02-08T17:30:01.652Z,88.49
2019-02-08T17:32:41.682Z,88.03
2019-02-08T17:35:21.930Z,86.76
2019-02-08T17:38:02.515Z,87.85
2019-02-08T17:40:42.877Z,88.04
2019-02-08T17:43:23.017Z,87.42
2019-02-08T17:46:04.469Z,87.04
2019-02-08T17:48:45.390Z,87.66
2019-02-08T17:51:25.677Z,86.90
2019-02-08T17:54:06.063Z,87.03
2019-02-08T17:56:46.366Z,86.76
2019-02-08T17:59:27.439Z,87.40
2019-02-08T18:02:07.905Z,87.93
2019-02-08T18:04:48.155Z,86.73
2019-02-08T18:07:28.218Z,87.76
2019-02-08T18:10:08.271Z,87.37
2019-02-08T18:12:48.528Z,87.27
2019-02-08T18:15:29.317Z,87.47
2019-02-08T18:18:09.802Z,88.83
2019-02-08T18:20:49.931Z,88.20
2019-02-08T18:23:30.192Z,88.96
2019-02-08T18:26:10.362Z,88.35
2019-02-08T18:28:50.739Z,89.36
2019-02-08T18:31:31.052Z,88.90
2019-02-08T18:34:11.180Z,89.23
2019-02-08T18:36:51.569Z,89.91
2019-02-08T18:39:31.665Z,89.11
2019-02-08T18:42:12.486Z,89.67
2019-02-08T18:44:52.348Z,90.17
2019-02-08T18:47:33.398Z,90.29
2019-02-08T18:50:13.483Z,90.82
2019-02-08T18:52:53.348Z,90.80
2019-02-08T18:55:33.345Z,91.36
2019-02-08T18:58:18.844Z,92.33
2019-02-08T19:00:54.263Z,92.66
2019-02-08T19:03:35.153Z,92.49
2019-02-08T19:06:15.394Z,92.55
2019-02-08T19:08:55.448Z,93.05
2019-02-08T19:11:36.041Z,92.34
2019-02-08T19:14:16.037Z,92.21
2019-02-08T19:16:56.199Z,91.88
2019-02-08T19:19:36.428Z,91.98
2019-02-08T19:22:16.916Z,93.08
2019-02-08T19:24:56.924Z,94.60
2019-02-08T19:27:37.269Z,95.30
2019-02-08T19:30:17.594Z,95.36
2019-02-08T19:32:57.977Z,95.31
2019-02-08T19:35:37.766Z,94.49
2019-02-08T19:38:17.687Z,93.94
2019-02-08T19:40:57.893Z,94.22
2019-02-08T19:43:38.136Z,93.64
2019-02-08T19:46:18.217Z,94.26
2019-02-08T19:48:58.098Z,94.09
2019-02-08T19:51:38.012Z,93.72
2019-02-08T19:54:17.962Z,94.26
2019-02-08T19:56:58.127Z,93.88
2019-02-08T19:59:38.063Z,94.87
2019-02-08T20:02:17.850Z,95.33
2019-02-08T20:04:57.712Z,96.40
2019-02-08T20:07:38.239Z,95.76
2019-02-08T20:10:18.446Z,94.70
2019-02-08T20:12:59.013Z,94.69
2019-02-08T20:15:39.098Z,94.26
2019-02-08T20:18:19.273Z,93.31
2019-02-08T20:20:59.872Z,92.99
2019-02-08T20:23:40.616Z,92.94
2019-02-08T20:26:20.819Z,93.18
2019-02-08T20:29:00.819Z,92.86
2019-02-08T20:31:41.506Z,93.33
2019-02-08T20:34:21.739Z,93.32
2019-02-08T20:37:01.624Z,93.18
2019-02-08T20:39:41.958Z,93.71
2019-02-08T20:42:21.765Z,92.67
2019-02-08T20:45:02.281Z,92.96
2019-02-08T20:47:42.533Z,92.73
2019-02-08T20:50:22.576Z,93.40
2019-02-08T20:53:03.911Z,93.31
2019-02-08T20:55:44.635Z,93.50
2019-02-08T20:58:25.685Z,93.67
2019-02-08T21:01:06.791Z,93.75
2019-02-08T21:03:47.764Z,94.25
2019-02-08T21:06:28.209Z,94.71
2019-02-08T21:09:09.101Z,94.01
2019-02-08T21:11:50.052Z,94.21
2019-02-08T21:14:31.283Z,94.97
2019-02-08T21:17:12.294Z,95.22
2019-02-08T21:19:53.061Z,94.57
2019-02-08T21:22:33.955Z,94.67
2019-02-08T21:25:14.603Z,95.45
2019-02-08T21:27:54.538Z,94.80
2019-02-08T21:30:35.104Z,94.40
2019-02-08T21:33:15.575Z,94.62
2019-02-08T21:35:56.441Z,95.58
2019-02-08T21:38:37.109Z,96.00
2019-02-08T21:41:17.664Z,95.71
2019-02-08T21:43:58.957Z,96.69
2019-02-08T21:46:39.912Z,96.12
2019-02-08T21:49:20.621Z,96.76
2019-02-08T21:52:02.176Z,97.36
2019-02-08T21:54:42.856Z,96.70
2019-02-08T21:57:23.835Z,97.88
2019-02-08T22:00:04.633Z,97.37
2019-02-08T22:02:45.374Z,97.87
2019-02-08T22:05:25.745Z,96.99
2019-02-08T22:08:06.126Z,98.01
2019-02-08T22:10:46.751Z,97.99
2019-02-08T22:13:27.451Z,97.71
2019-02-08T22:16:07.700Z,98.66
2019-02-08T22:18:47.756Z,98.26
2019-02-08T22:21:28.026Z,97.97
2019-02-08T22:24:08.001Z,98.53
2019-02-08T22:26:48.067Z,97.75
2019-02-08T22:29:28.068Z,97.88
2019-02-08T22:32:07.983Z,98.69
2019-02-08T22:34:48.115Z,98.29
2019-02-08T22:37:28.088Z,98.13
2019-02-08T22:40:08.575Z,98.97
2019-02-08T22:42:48.665Z,99.65
2019-02-08T22:45:29.066Z,99.22
2019-02-08T22:48:09.158Z,98.97
2019-02-08T22:50:49.166Z,99.64
2019-02-08T22:53:29.027Z,98.10
2019-02-08T22:56:08.885Z,98.37
2019-02-08T22:58:49.550Z,98.46
2019-02-08T23:01:29.743Z,98.21
2019-02-08T23:04:10.602Z,98.66
2019-02-08T23:06:51.372Z,99.07
2019-02-08T23:09:32.528Z,98.54
2019-02-08T23:12:12.786Z,99.37
2019-02-08T23:14:53.988Z,99.76
2019-02-08T23:17:34.637Z,99.50
2019-02-08T23:20:15.084Z,98.58
2019-02-08T23:22:55.944Z,99.34
2019-02-08T23:25:36.629Z,99.00
2019-02-08T23:28:16.886Z,99.79
2019-02-08T23:30:57.330Z,100.00
2019-02-08T23:33:38.203Z,99.72
2019-02-08T23:36:18.801Z,99.71
2019-02-08T23:39:00.406Z,100.00
2019-02-08T23:41:41.683Z,100.00
2019-02-08T23:44:22.627Z,100.00
2019-02-08T23:47:03.918Z,100.00
2019-02-08T23:49:43.948Z,100.00
2019-02-08T23:52:24.628Z,100.00
2019-02-08T23:55:05.585Z,99.53
2019-02-08T23:57:46.303Z,99.32
